Time;durP1;ratioP1;P1;durP2;ratioP2;P2;SDS_P1;SDS_P2;PMS_P1;PMS_P2;Temp;Humidity;BMP_temperature;BMP_pressure;BME280_temperature;BME280_humidity;BME280_pressure;Samples;Min_cycle;Max_cycle;Signal;HPM_P1;HPM_P2
2022/09/29 00:00:01;;;;;;;6.13;2.50;;;;;;;10.09;100.00;99463.22;5037412;28;20432;-82
2022/09/29 00:02:28;;;;;;;5.97;2.67;;;;;;;10.05;100.00;99473.94;5038706;28;20829;-82
2022/09/29 00:04:55;;;;;;;6.00;2.30;;;;;;;10.04;100.00;99469.59;5038207;28;20807;-82
2022/09/29 00:07:22;;;;;;;5.60;2.80;;;;;;;10.07;100.00;99468.19;5037592;28;20940;-82
2022/09/29 00:09:48;;;;;;;6.43;2.60;;;;;;;10.02;100.00;99462.97;5038494;28;20447;-82
2022/09/29 00:12:15;;;;;;;6.40;2.83;;;;;;;10.03;100.00;99472.66;5038880;28;20529;-82
2022/09/29 00:14:41;;;;;;;7.13;2.53;;;;;;;10.06;100.00;99469.31;5039476;28;20479;-82
2022/09/29 00:17:08;;;;;;;6.10;2.60;;;;;;;10.06;100.00;99469.31;5038771;28;20443;-82
2022/09/29 00:19:34;;;;;;;6.67;3.00;;;;;;;10.07;100.00;99474.38;5039475;28;20856;-82
2022/09/29 00:22:02;;;;;;;6.53;2.80;;;;;;;10.09;100.00;99471.34;5039931;28;20458;-82
2022/09/29 00:24:29;;;;;;;8.67;3.07;;;;;;;10.14;100.00;99471.19;5041558;28;20897;-82
2022/09/29 00:26:57;;;;;;;6.47;2.80;;;;;;;10.18;100.00;99479.41;5041166;28;20824;-82
2022/09/29 00:29:24;;;;;;;6.47;2.43;;;;;;;10.18;100.00;99482.13;5041420;28;20897;-82
2022/09/29 00:31:50;;;;;;;7.23;3.17;;;;;;;10.13;100.00;99483.09;5040914;28;20562;-82
2022/09/29 00:34:17;;;;;;;9.40;3.00;;;;;;;10.15;100.00;99480.09;5040077;28;20432;-82
2022/09/29 00:36:43;;;;;;;5.20;2.07;;;;;;;10.19;100.00;99472.91;5040133;28;20439;-82
2022/09/29 00:39:12;;;;;;;5.90;2.93;;;;;;;10.22;100.00;99477.66;5039931;28;20432;-82
2022/09/29 00:41:40;;;;;;;7.30;3.00;;;;;;;10.17;100.00;99475.94;5041481;28;20454;-82
2022/09/29 00:44:45;;;;;;;10.17;2.90;;;;;;;10.12;100.00;99470.69;5041835;28;20471;-82
2022/09/29 00:47:16;;;;;;;6.27;2.07;;;;;;;10.12;100.00;99470.69;5041687;28;20515;-82
2022/09/29 00:49:45;;;;;;;7.37;2.97;;;;;;;10.02;100.00;99476.47;5042452;28;20960;-82
2022/09/29 00:52:17;;;;;;;8.83;3.00;;;;;;;9.95;100.00;99465.34;5043141;28;20481;-82
2022/09/29 00:54:48;;;;;;;6.80;3.17;;;;;;;9.86;100.00;99468.09;5044799;28;20419;-82
2022/09/29 00:57:19;;;;;;;7.87;2.97;;;;;;;9.83;100.00;99463.34;5040525;28;20458;-82
2022/09/29 00:59:51;;;;;;;6.90;3.17;;;;;;;9.77;100.00;99465.41;5037837;28;20423;-82
2022/09/29 01:02:19;;;;;;;7.97;2.57;;;;;;;9.78;100.00;99467.03;5037598;28;20452;-82
2022/09/29 01:04:55;;;;;;;7.30;3.10;;;;;;;9.86;100.00;99468.88;5038484;28;20461;-82
2022/09/29 01:07:23;;;;;;;7.73;2.80;;;;;;;9.85;100.00;99478.13;5039657;28;20852;-82
2022/09/29 01:09:54;;;;;;;6.40;3.00;;;;;;;9.88;100.00;99473.19;5038911;28;20446;-82
2022/09/29 01:12:20;;;;;;;6.87;3.20;;;;;;;9.84;100.00;99471.13;5038942;28;20490;-82
2022/09/29 01:14:48;;;;;;;9.20;3.40;;;;;;;9.90;100.00;99477.16;5040828;28;20454;-82
2022/09/29 01:17:15;;;;;;;7.90;3.07;;;;;;;9.93;100.00;99478.44;5040077;28;20827;-82
2022/09/29 01:19:51;;;;;;;8.27;3.40;;;;;;;9.97;100.00;99471.25;5041881;28;20450;-82
2022/09/29 01:22:35;;;;;;;8.13;3.50;;;;;;;9.87;100.00;99480.50;5040706;28;20485;-82
2022/09/29 01:25:20;;;;;;;7.97;3.27;;;;;;;9.88;100.00;99481.31;5037809;28;20451;-82
2022/09/29 01:28:18;;;;;;;7.03;3.00;;;;;;;9.93;100.00;99489.25;5039791;28;20905;-82
2022/09/29 01:31:04;;;;;;;8.23;3.63;;;;;;;9.91;100.00;99494.16;5034504;28;20447;-82
2022/09/29 01:33:38;;;;;;;6.33;2.50;;;;;;;9.78;100.00;99488.66;5038124;28;20837;-82
2022/09/29 01:36:12;;;;;;;8.13;3.40;;;;;;;9.87;100.00;99494.00;5037749;28;20758;-82
2022/09/29 01:38:52;;;;;;;7.17;3.50;;;;;;;9.79;100.00;99501.06;5037721;28;20454;-82
2022/09/29 01:41:28;;;;;;;8.23;3.17;;;;;;;9.77;100.00;99502.47;5037716;28;20430;-82
2022/09/29 01:43:59;;;;;;;7.90;3.47;;;;;;;9.77;100.00;99507.88;5037840;28;20447;-82
2022/09/29 01:46:32;;;;;;;6.70;3.00;;;;;;;9.76;100.00;99501.69;5038321;28;20800;-82
2022/09/29 01:49:01;;;;;;;6.97;2.57;;;;;;;9.77;100.00;99508.69;5039348;28;20411;-82
2022/09/29 01:51:35;;;;;;;8.00;2.90;;;;;;;9.74;100.00;99511.22;5042289;28;20462;-82
2022/09/29 01:54:08;;;;;;;12.43;3.40;;;;;;;9.75;100.00;99502.81;5042146;28;20461;-82
2022/09/29 01:56:38;;;;;;;8.50;3.30;;;;;;;9.76;100.00;99506.31;5042327;28;20446;-82
2022/09/29 01:59:12;;;;;;;11.13;3.90;;;;;;;9.78;100.00;99514.88;5042245;28;20478;-82
2022/09/29 02:01:45;;;;;;;8.00;3.80;;;;;;;9.85;100.00;99504.38;5042010;28;20774;-82
2022/09/29 02:04:16;;;;;;;9.23;3.70;;;;;;;9.89;100.00;99520.75;5041685;28;20984;-82
2022/09/29 02:06:50;;;;;;;9.23;3.03;;;;;;;9.94;100.00;99512.47;5042773;28;20414;-82
2022/09/29 02:09:22;;;;;;;14.10;4.50;;;;;;;9.99;100.00;99526.59;5042134;28;20415;-83
2022/09/29 02:11:51;;;;;;;11.60;3.60;;;;;;;10.00;100.00;99521.97;5042558;28;20475;-83
2022/09/29 02:14:20;;;;;;;11.10;4.20;;;;;;;10.05;100.00;99514.50;5042104;28;20461;-83
2022/09/29 02:16:54;;;;;;;8.90;4.00;;;;;;;10.07;100.00;99519.59;5042170;28;20435;-82
2022/09/29 02:19:24;;;;;;;15.97;4.30;;;;;;;10.05;100.00;99519.13;5042471;28;20442;-83
2022/09/29 02:21:53;;;;;;;8.03;3.87;;;;;;;10.01;100.00;99523.59;5041301;28;20432;-82
2022/09/29 02:24:20;;;;;;;10.43;3.70;;;;;;;9.96;100.00;99519.16;5042502;28;20443;-83
2022/09/29 02:26:47;;;;;;;7.67;3.70;;;;;;;9.92;100.00;99529.03;5042892;28;20440;-82
2022/09/29 02:29:15;;;;;;;12.97;4.53;;;;;;;9.94;100.00;99523.28;5043855;28;20431;-82
2022/09/29 02:31:43;;;;;;;10.07;3.87;;;;;;;9.91;100.00;99526.63;5043241;28;20444;-82
2022/09/29 02:34:16;;;;;;;7.50;3.33;;;;;;;9.86;100.00;99522.19;5039515;28;20507;-81
2022/09/29 02:36:55;;;;;;;6.77;2.83;;;;;;;9.86;100.00;99525.69;5039019;28;20435;-81
2022/09/29 02:39:32;;;;;;;8.53;4.27;;;;;;;9.91;100.00;99530.13;5038371;28;20435;-82
2022/09/29 02:42:10;;;;;;;10.57;3.93;;;;;;;9.88;100.00;99528.09;5037726;28;20482;-82
2022/09/29 02:44:49;;;;;;;8.80;4.43;;;;;;;9.93;100.00;99532.53;5037443;28;20412;-81
2022/09/29 02:47:32;;;;;;;8.80;4.17;;;;;;;9.95;100.00;99533.78;5037088;28;20428;-82
2022/09/29 02:50:17;;;;;;;9.47;3.90;;;;;;;9.93;100.00;99538.72;5036775;28;20427;-81
2022/09/29 02:52:55;;;;;;;11.57;4.43;;;;;;;9.88;100.00;99532.69;5036816;28;20503;-82
2022/09/29 02:55:28;;;;;;;8.10;3.43;;;;;;;9.91;100.00;99527.41;5037034;28;20434;-81
2022/09/29 02:57:59;;;;;;;8.80;4.40;;;;;;;9.96;100.00;99534.56;5036878;28;20434;-82
2022/09/29 03:00:27;;;;;;;13.00;4.43;;;;;;;9.91;100.00;99540.16;5036449;28;20431;-82
2022/09/29 03:02:54;;;;;;;7.57;3.97;;;;;;;9.89;100.00;99529.66;5036302;28;20463;-82
2022/09/29 03:05:22;;;;;;;8.10;3.90;;;;;;;9.95;100.00;99538.41;5036166;28;20427;-82
2022/09/29 03:07:49;;;;;;;7.70;3.97;;;;;;;9.99;100.00;99536.63;5037326;28;20871;-82
2022/09/29 03:10:18;;;;;;;12.83;4.10;;;;;;;10.02;100.00;99533.28;5040211;28;20447;-82
2022/09/29 03:12:45;;;;;;;8.53;4.50;;;;;;;10.02;100.00;99536.78;5039665;28;21061;-82
2022/09/29 03:15:12;;;;;;;8.50;4.07;;;;;;;10.03;100.00;99537.56;5040444;28;20505;-82
2022/09/29 03:17:39;;;;;;;10.33;5.07;;;;;;;10.07;100.00;99541.22;5040295;28;20523;-82
2022/09/29 03:20:07;;;;;;;9.07;4.10;;;;;;;10.01;100.00;99535.22;5040341;28;20450;-82
2022/09/29 03:22:34;;;;;;;9.43;4.63;;;;;;;9.99;100.00;99540.13;5042213;28;20487;-82
2022/09/29 03:25:01;;;;;;;11.50;5.00;;;;;;;9.98;100.00;99537.75;5040953;28;20795;-82
2022/09/29 03:27:27;;;;;;;8.17;4.23;;;;;;;9.93;100.00;99538.72;5040820;28;20447;-82
2022/09/29 03:29:54;;;;;;;10.23;5.27;;;;;;;9.94;100.00;99542.22;5041313;28;20447;-82
2022/09/29 03:32:21;;;;;;;8.60;3.77;;;;;;;9.91;100.00;99535.53;5040974;28;20490;-82
2022/09/29 03:34:47;;;;;;;11.33;5.07;;;;;;;9.92;100.00;99541.75;5041305;28;20517;-82
2022/09/29 03:37:14;;;;;;;12.10;5.07;;;;;;;9.90;100.00;99533.94;5041977;28;20447;-82
2022/09/29 03:39:42;;;;;;;12.33;4.80;;;;;;;9.91;100.00;99542.84;5042879;28;20446;-82
2022/09/29 03:42:08;;;;;;;11.50;5.10;;;;;;;9.85;100.00;99545.72;5047305;28;20442;-82
2022/09/29 03:44:35;;;;;;;10.57;4.50;;;;;;;9.84;100.00;99546.06;5042172;28;20442;-82
2022/09/29 03:47:01;;;;;;;9.63;5.17;;;;;;;9.79;100.00;99544.31;5039097;28;20458;-82
2022/09/29 03:49:28;;;;;;;8.37;4.67;;;;;;;9.76;100.00;99547.66;5040290;28;20447;-82
2022/09/29 03:51:55;;;;;;;11.53;5.50;;;;;;;9.71;100.00;99547.84;5038932;28;20554;-82
2022/09/29 03:54:23;;;;;;;10.60;4.80;;;;;;;9.76;100.00;99555.78;5040128;28;20439;-82
2022/09/29 03:56:50;;;;;;;10.60;5.20;;;;;;;9.76;100.00;99555.00;5039459;28;20447;-82
2022/09/29 03:59:17;;;;;;;15.50;6.73;;;;;;;9.76;100.00;99561.19;5039550;28;20447;-81
2022/09/29 04:01:43;;;;;;;10.93;5.20;;;;;;;9.77;100.00;99561.97;5040699;28;20450;-82
2022/09/29 04:04:11;;;;;;;11.60;5.73;;;;;;;9.82;100.00;99559.88;5040038;28;20471;-82
2022/09/29 04:06:37;;;;;;;12.10;5.50;;;;;;;9.85;100.00;99564.66;5040422;28;20481;-82
2022/09/29 04:09:04;;;;;;;15.70;5.77;;;;;;;9.85;100.00;99567.38;5040744;28;20447;-82
2022/09/29 04:11:31;;;;;;;12.03;4.50;;;;;;;9.78;100.00;99577.91;5041307;28;20459;-82
2022/09/29 04:13:58;;;;;;;13.10;6.70;;;;;;;9.77;100.00;99562.78;5040847;28;20490;-82
2022/09/29 04:16:25;;;;;;;13.40;5.93;;;;;;;9.78;100.00;99577.91;5044685;28;20439;-81
2022/09/29 04:18:51;;;;;;;11.17;4.60;;;;;;;9.76;100.00;99579.31;5039658;28;20439;-82
2022/09/29 04:21:18;;;;;;;13.77;5.83;;;;;;;9.70;100.00;99567.88;5038662;28;20427;-82
2022/09/29 04:23:44;;;;;;;10.63;5.17;;;;;;;9.77;100.00;99573.59;5037925;28;20547;-82
2022/09/29 04:26:11;;;;;;;13.47;5.63;;;;;;;9.83;100.00;99575.03;5038785;28;20446;-83
2022/09/29 04:28:38;;;;;;;13.00;6.57;;;;;;;9.78;100.00;99580.59;5038551;28;20447;-82
2022/09/29 04:31:06;;;;;;;11.57;5.93;;;;;;;9.78;100.00;99582.50;5038521;28;20447;-82
2022/09/29 04:33:32;;;;;;;12.20;5.80;;;;;;;9.77;100.00;99579.00;5038686;28;20999;-82
2022/09/29 04:35:59;;;;;;;9.77;5.37;;;;;;;9.77;100.00;99579.00;5038974;28;20450;-82
2022/09/29 04:38:26;;;;;;;12.60;5.20;;;;;;;9.77;100.00;99580.91;5037998;28;20475;-82
2022/09/29 04:40:53;;;;;;;11.63;5.80;;;;;;;9.84;100.00;99584.72;5037506;28;20442;-83
2022/09/29 04:43:19;;;;;;;17.30;6.13;;;;;;;9.82;100.00;99584.22;5037081;28;20451;-82
2022/09/29 04:45:46;;;;;;;10.00;5.30;;;;;;;9.84;100.00;99583.94;5037410;28;20924;-82
2022/09/29 04:48:13;;;;;;;11.33;6.00;;;;;;;9.92;100.00;99585.03;5038060;28;20455;-82
2022/09/29 04:50:40;;;;;;;12.53;6.00;;;;;;;9.88;100.00;99593.00;5037794;28;20952;-82
2022/09/29 04:53:07;;;;;;;11.10;5.17;;;;;;;9.91;100.00;99591.53;5037577;28;20494;-82
2022/09/29 04:55:33;;;;;;;14.20;5.80;;;;;;;9.89;100.00;99602.69;5038494;28;20439;-83
2022/09/29 04:58:00;;;;;;;13.40;5.90;;;;;;;9.92;100.00;99599.34;5038211;28;20434;-83
2022/09/29 05:00:26;;;;;;;12.30;5.83;;;;;;;9.84;100.00;99600.16;5038737;28;20443;-83
2022/09/29 05:02:53;;;;;;;13.87;5.63;;;;;;;9.83;100.00;99601.28;5039011;28;20459;-82
2022/09/29 05:05:21;;;;;;;8.07;4.37;;;;;;;9.83;100.00;99599.38;5038626;28;20435;-83
2022/09/29 05:07:47;;;;;;;11.47;5.90;;;;;;;9.82;100.00;99605.06;5039187;28;20439;-82
2022/09/29 05:10:14;;;;;;;10.17;5.67;;;;;;;9.86;100.00;99612.22;5042500;28;20457;-83
2022/09/29 05:12:40;;;;;;;15.20;5.83;;;;;;;9.87;100.00;99610.31;5036532;28;20511;-83
2022/09/29 05:15:08;;;;;;;12.70;5.80;;;;;;;9.90;100.00;99606.97;5036746;28;20439;-82
2022/09/29 05:17:34;;;;;;;12.20;5.60;;;;;;;9.83;100.00;99610.19;5037638;28;20530;-82
2022/09/29 05:20:01;;;;;;;14.67;6.77;;;;;;;9.88;100.00;99616.56;5036586;28;20454;-83
2022/09/29 05:22:29;;;;;;;10.50;5.43;;;;;;;9.84;100.00;99619.09;5038669;28;20463;-83
2022/09/29 05:24:55;;;;;;;11.27;5.87;;;;;;;9.85;100.00;99607.94;5040800;28;20913;-82
2022/09/29 05:27:22;;;;;;;11.47;5.53;;;;;;;9.85;100.00;99616.06;5040601;28;20443;-82
2022/09/29 05:29:49;;;;;;;11.73;4.97;;;;;;;9.87;100.00;99615.72;5041382;28;20443;-82
2022/09/29 05:32:15;;;;;;;10.03;5.10;;;;;;;9.90;100.00;99615.09;5041484;28;20541;-83
2022/09/29 05:34:42;;;;;;;11.00;4.43;;;;;;;9.98;100.00;99618.91;5041448;28;21035;-83
2022/09/29 05:37:09;;;;;;;12.70;5.27;;;;;;;10.01;100.00;99623.69;5041120;28;20442;-82
2022/09/29 05:39:38;;;;;;;10.53;4.80;;;;;;;10.00;100.00;99620.16;5059688;28;20459;-82
2022/09/29 05:42:06;;;;;;;18.37;6.23;;;;;;;10.04;100.00;99620.31;5061477;28;20487;-82
2022/09/29 05:44:32;;;;;;;13.20;5.80;;;;;;;10.05;100.00;99617.31;5063017;28;20465;-82
2022/09/29 05:46:59;;;;;;;10.03;5.63;;;;;;;10.09;100.00;99617.44;5064476;28;20446;-83
2022/09/29 05:49:25;;;;;;;10.73;5.13;;;;;;;10.09;100.00;99620.16;5063178;28;20915;-85
2022/09/29 05:51:52;;;;;;;11.97;5.50;;;;;;;10.09;100.00;99620.16;5062506;28;20442;-82
2022/09/29 05:54:20;;;;;;;13.67;4.50;;;;;;;10.11;100.00;99623.34;5063673;28;20490;-82
2022/09/29 05:56:47;;;;;;;19.73;9.57;;;;;;;10.08;100.00;99615.88;5063207;28;20454;-82
2022/09/29 05:59:14;;;;;;;24.00;12.03;;;;;;;10.05;100.00;99624.63;5064333;28;20434;-82
2022/09/29 06:01:40;;;;;;;18.13;10.37;;;;;;;10.05;100.00;99627.34;5063887;28;20466;-84
2022/09/29 06:04:07;;;;;;;17.77;9.07;;;;;;;10.05;100.00;99630.06;5066639;28;20471;-82
2022/09/29 06:06:35;;;;;;;13.23;7.13;;;;;;;10.08;100.00;99622.06;5060783;28;20433;-82
2022/09/29 06:09:01;;;;;;;16.23;5.83;;;;;;;10.08;100.00;99630.19;5064219;28;20446;-82
2022/09/29 06:11:30;;;;;;;10.43;5.43;;;;;;;10.07;100.00;99627.81;5065067;28;20442;-82
2022/09/29 06:13:58;;;;;;;13.60;5.27;;;;;;;10.06;100.00;99634.34;5068697;28;20486;-82
2022/09/29 06:16:27;;;;;;;15.30;6.03;;;;;;;10.16;100.00;99627.78;5067636;28;20477;-81
2022/09/29 06:18:54;;;;;;;11.97;5.83;;;;;;;10.23;100.00;99631.59;5063173;28;20500;-81
2022/09/29 06:21:23;;;;;;;14.10;6.37;;;;;;;10.29;100.00;99635.75;5066090;28;20446;-81
2022/09/29 06:23:50;;;;;;;12.70;6.40;;;;;;;10.29;100.00;99637.66;5061576;28;20466;-81
2022/09/29 06:26:19;;;;;;;12.37;6.13;;;;;;;10.29;100.00;99633.03;5060517;28;20445;-81
2022/09/29 06:28:45;;;;;;;10.90;5.93;;;;;;;10.32;100.00;99637.81;5061241;28;20442;-81
2022/09/29 06:31:15;;;;;;;15.30;7.07;;;;;;;10.38;100.00;99640.34;5060747;28;20801;-81
2022/09/29 06:33:42;;;;;;;12.83;6.17;;;;;;;10.41;100.00;99637.81;5059641;28;20999;-81
2022/09/29 06:39:00;;;;;;;16.80;6.27;;;;;;;10.45;100.00;99641.44;5060074;28;20422;-81
2022/09/29 06:41:28;;;;;;;12.70;5.50;;;;;;;10.52;100.00;99636.31;5060132;28;20492;-83
2022/09/29 06:43:54;;;;;;;18.63;6.73;;;;;;;10.56;100.00;99639.19;5059177;28;20564;-82
2022/09/29 06:46:22;;;;;;;14.23;6.07;;;;;;;10.57;100.00;99644.25;5059978;28;20457;-81
2022/09/29 06:48:49;;;;;;;12.30;6.40;;;;;;;10.61;100.00;99639.00;5060024;28;20815;-81
2022/09/29 06:51:15;;;;;;;16.17;6.23;;;;;;;10.67;100.00;99637.72;5059647;28;20461;-82
2022/09/29 06:53:42;;;;;;;14.83;7.10;;;;;;;10.69;100.00;99642.78;5061675;28;20493;-81
2022/09/29 06:56:09;;;;;;;11.37;5.60;;;;;;;10.73;100.00;99647.25;5065633;28;20447;-81
2022/09/29 06:58:36;;;;;;;10.10;4.70;;;;;;;10.74;100.00;99642.59;5062069;28;20449;-82
2022/09/29 07:01:04;;;;;;;12.67;5.23;;;;;;;10.72;100.00;99648.38;5055745;28;20435;-81
2022/09/29 07:03:34;;;;;;;16.03;5.83;;;;;;;10.74;100.00;99648.03;5055913;28;20855;-81
2022/09/29 07:06:02;;;;;;;13.00;6.90;;;;;;;10.74;100.00;99643.41;5060253;28;20486;-81
2022/09/29 07:08:29;;;;;;;10.90;4.50;;;;;;;10.78;100.00;99655.19;5059438;28;20427;-81
2022/09/29 07:10:56;;;;;;;15.63;6.40;;;;;;;10.80;100.00;99649.44;5061207;28;20442;-81
2022/09/29 07:13:22;;;;;;;13.23;6.63;;;;;;;10.81;100.00;99651.81;5060676;28;20490;-81
2022/09/29 07:15:49;;;;;;;15.13;6.70;;;;;;;10.87;100.00;99655.16;5062496;28;20442;-81
2022/09/29 07:18:15;;;;;;;9.90;5.30;;;;;;;10.93;100.00;99661.97;5061831;28;20451;-81
2022/09/29 07:20:43;;;;;;;14.00;5.87;;;;;;;10.99;100.00;99663.38;5062736;28;20450;-81
2022/09/29 07:23:10;;;;;;;13.70;5.57;;;;;;;11.06;100.00;99665.56;5061845;28;20482;-81
2022/09/29 07:25:37;;;;;;;22.57;6.40;;;;;;;11.12;100.00;99672.41;5061999;28;20537;-81
2022/09/29 07:28:04;;;;;;;20.20;6.40;;;;;;;11.13;100.00;99674.00;5063853;28;20442;-81
2022/09/29 07:30:31;;;;;;;11.70;4.67;;;;;;;11.21;100.00;99678.56;5064843;28;20445;-81
2022/09/29 07:32:57;;;;;;;14.00;5.20;;;;;;;11.29;100.00;99680.44;5064196;28;20967;-81
2022/09/29 07:35:24;;;;;;;33.80;5.60;;;;;;;11.28;100.00;99678.84;5062383;28;20489;-81
2022/09/29 07:37:53;;;;;;;13.27;7.00;;;;;;;11.29;100.00;99685.88;5063109;28;20819;-81
2022/09/29 07:40:20;;;;;;;9.97;5.13;;;;;;;11.24;100.00;99688.75;5064935;28;20434;-81
2022/09/29 07:42:46;;;;;;;10.67;4.90;;;;;;;11.30;100.00;99695.59;5066790;28;20466;-81
2022/09/29 07:45:13;;;;;;;18.77;6.00;;;;;;;11.38;100.00;99691.25;5067429;28;20453;-81
2022/09/29 07:47:39;;;;;;;10.47;5.60;;;;;;;11.38;99.46;99696.66;5061173;28;20434;-80
2022/09/29 07:50:06;;;;;;;18.20;6.00;;;;;;;11.36;99.56;99696.19;5060068;28;20442;-81
2022/09/29 07:52:33;;;;;;;12.27;5.10;;;;;;;11.34;99.33;99693.81;5059280;28;20453;-81
2022/09/29 07:55:01;;;;;;;14.40;6.00;;;;;;;11.35;99.18;99703.53;5060543;28;20482;-80
2022/09/29 07:57:27;;;;;;;12.50;5.70;;;;;;;11.39;100.00;99711.00;5060045;28;20442;-83
2022/09/29 07:59:56;;;;;;;12.50;6.23;;;;;;;11.54;100.00;99710.44;5059483;28;20935;-83
2022/09/29 08:02:23;;;;;;;15.00;6.57;;;;;;;11.59;99.52;99700.19;5052761;28;20475;-81
2022/09/29 08:04:49;;;;;;;13.73;6.07;;;;;;;11.47;98.27;99713.69;5044770;28;20529;-80
2022/09/29 08:07:16;;;;;;;16.30;5.73;;;;;;;11.47;99.01;99718.31;5059307;28;20465;-82
2022/09/29 08:09:43;;;;;;;16.87;7.33;;;;;;;11.54;99.55;99713.13;5050621;28;20451;-81
2022/09/29 08:12:12;;;;;;;11.10;5.70;;;;;;;11.61;98.58;99716.94;5039716;28;20474;-82
2022/09/29 08:14:39;;;;;;;10.30;5.13;;;;;;;11.65;98.37;99716.28;5038579;28;20482;-82
2022/09/29 08:17:05;;;;;;;12.97;6.13;;;;;;;11.64;98.00;99718.16;5040806;28;20447;-82
2022/09/29 08:19:32;;;;;;;16.20;7.90;;;;;;;11.71;98.20;99729.31;5040843;28;20444;-82
2022/09/29 08:21:58;;;;;;;16.87;7.63;;;;;;;11.82;97.78;99725.13;5039650;28;20439;-85
2022/09/29 08:24:25;;;;;;;11.73;6.07;;;;;;;11.96;97.16;99718.63;5041534;28;20443;-82
2022/09/29 08:26:51;;;;;;;14.53;5.27;;;;;;;12.06;96.54;99726.38;5041111;28;20474;-83
2022/09/29 08:29:19;;;;;;;15.87;6.00;;;;;;;12.05;94.99;99725.59;5039726;28;20438;-82
2022/09/29 08:31:47;;;;;;;11.80;5.50;;;;;;;12.16;94.55;99734.09;5041862;28;20462;-82
2022/09/29 08:34:14;;;;;;;12.60;5.53;;;;;;;12.21;94.42;99730.41;5041597;28;20483;-82
2022/09/29 08:36:57;;;;;;;11.43;5.53;;;;;;;12.18;93.89;99731.06;5042315;28;20921;-82
2022/09/29 08:39:28;;;;;;;13.50;6.10;;;;;;;12.21;94.25;99731.19;5044405;28;20444;-83
2022/09/29 08:42:29;;;;;;;11.37;5.43;;;;;;;12.19;93.63;99733.44;5041256;28;20442;-83
2022/09/29 08:45:53;;;;;;;14.03;5.47;;;;;;;11.99;93.08;99734.25;5041523;28;20821;-83
2022/09/29 08:49:24;;;;;;;;;;;;;;;;;;;;;
2022/09/29 08:56:02;;;;;;;14.60;5.93;;;;;;;12.00;93.78;99744.78;4889789;29;20628;-82
2022/09/29 09:02:14;;;;;;;10.20;4.73;;;;;;;12.14;93.14;99758.09;4772573;29;20503;-82
2022/09/29 09:08:16;;;;;;;12.03;5.83;;;;;;;12.25;92.37;99755.75;4826629;29;20457;-82
2022/09/29 09:10:47;;;;;;;13.53;5.50;;;;;;;12.34;93.02;99756.47;4832198;29;20567;-82
2022/09/29 09:13:51;;;;;;;13.43;4.67;;;;;;;12.33;91.43;99754.88;4832889;29;20477;-83
2022/09/29 09:16:48;;;;;;;12.83;4.60;;;;;;;12.20;91.38;99751.31;4833844;29;20461;-82
2022/09/29 09:25:10;;;;;;;15.90;5.50;;;;;;;12.23;90.61;99758.81;5065820;22;20551;-71
2022/09/29 09:27:44;;;;;;;11.13;5.37;;;;;;;12.15;92.20;99759.66;5039758;28;20447;-72
2022/09/29 09:30:15;;;;;;;12.17;5.67;;;;;;;12.26;92.43;99760.06;5039898;28;20442;-72
2022/09/29 09:32:47;;;;;;;13.50;5.97;;;;;;;12.28;92.43;99764.03;5038610;28;20474;-71
2022/09/29 09:35:30;;;;;;;15.20;5.83;;;;;;;12.32;92.12;99756.81;5052710;28;20524;-71
2022/09/29 09:38:01;;;;;;;12.90;5.40;;;;;;;12.33;90.76;99763.81;5037916;28;20846;-71
2022/09/29 09:40:38;;;;;;;10.37;4.93;;;;;;;12.31;92.06;99765.31;5032516;28;20431;-71
2022/09/29 09:43:11;;;;;;;13.17;5.50;;;;;;;12.35;90.15;99760.75;5032462;28;20454;-71
2022/09/29 09:45:42;;;;;;;10.00;4.47;;;;;;;12.41;90.70;99777.69;5032384;28;20970;-71
2022/09/29 09:48:13;;;;;;;12.83;5.57;;;;;;;12.42;89.41;99779.25;5032727;28;20424;-72
2022/09/29 09:50:42;;;;;;;10.20;4.70;;;;;;;12.52;90.62;99773.41;5032487;28;20905;-71
2022/09/29 09:53:14;;;;;;;14.80;5.77;;;;;;;12.67;91.19;99778.22;5032675;28;20470;-72
2022/09/29 09:55:42;;;;;;;8.63;4.20;;;;;;;12.79;89.35;99778.28;5032551;28;20463;-71
2022/09/29 09:58:35;;;;;;;9.87;4.60;;;;;;;12.98;89.70;99785.91;5032599;28;20446;-71
2022/09/29 10:01:04;;;;;;;9.37;4.80;;;;;;;13.08;88.52;99776.50;5032624;28;20431;-71
2022/09/29 10:03:31;;;;;;;11.77;5.20;;;;;;;13.33;88.61;99775.44;5032489;28;20510;-71
2022/09/29 10:05:58;;;;;;;15.97;5.07;;;;;;;13.51;88.55;99786.09;5032564;28;20443;-71
2022/09/29 10:08:28;;;;;;;7.87;4.00;;;;;;;13.61;84.93;99796.53;5032647;28;20508;-73
2022/09/29 10:10:57;;;;;;;7.97;3.43;;;;;;;13.59;84.08;99788.72;5036095;28;20443;-72
2022/09/29 10:13:25;;;;;;;8.03;3.63;;;;;;;13.65;85.15;99783.84;5035776;28;20470;-71
2022/09/29 10:15:56;;;;;;;8.60;3.40;;;;;;;13.72;84.42;99788.69;5035855;28;20536;-71
2022/09/29 10:18:28;;;;;;;9.57;4.30;;;;;;;13.82;82.33;99796.41;5039878;28;20497;-71
2022/09/29 10:20:54;;;;;;;8.50;3.53;;;;;;;13.83;80.52;99795.28;5048471;28;20451;-71
2022/09/29 10:23:26;;;;;;;8.10;3.23;;;;;;;13.78;80.96;99793.56;5036320;28;20474;-70
2022/09/29 10:25:58;;;;;;;8.70;4.37;;;;;;;13.78;81.45;99796.28;5035435;28;20944;-71
2022/09/29 10:28:26;;;;;;;8.37;4.30;;;;;;;13.86;81.80;99798.09;5035722;28;20436;-71
2022/09/29 10:30:54;;;;;;;7.60;4.17;;;;;;;13.97;80.57;99795.69;5035753;28;20505;-71
2022/09/29 10:33:24;;;;;;;8.60;4.10;;;;;;;14.01;79.19;99798.53;5035268;28;20543;-71
2022/09/29 10:36:05;;;;;;;9.00;3.97;;;;;;;14.08;79.38;99793.31;5038175;28;20475;-71
2022/09/29 10:38:32;;;;;;;7.23;3.27;;;;;;;14.37;80.06;99790.25;5054748;28;20446;-71
2022/09/29 10:41:03;;;;;;;7.47;3.17;;;;;;;14.60;74.81;99795.19;5035692;28;20838;-71
2022/09/29 10:43:35;;;;;;;6.60;2.60;;;;;;;14.71;73.89;99799.03;5035424;28;20463;-71
2022/09/29 10:46:01;;;;;;;7.07;3.00;;;;;;;14.53;72.56;99803.97;5035549;28;20420;-71
2022/09/29 10:48:28;;;;;;;6.23;2.70;;;;;;;14.32;72.85;99798.69;5035370;28;20443;-73
2022/09/29 10:50:57;;;;;;;8.97;3.13;;;;;;;14.26;73.44;99799.28;5035395;28;20857;-70
2022/09/29 10:53:34;;;;;;;5.30;2.10;;;;;;;14.17;73.99;99802.13;5035254;28;20463;-71
2022/09/29 10:56:09;;;;;;;6.20;2.10;;;;;;;14.10;74.19;99801.91;5035119;28;20473;-71
2022/09/29 10:58:39;;;;;;;6.67;1.90;;;;;;;13.93;76.58;99807.63;5035274;28;20427;-72
2022/09/29 11:01:09;;;;;;;6.53;2.27;;;;;;;13.85;76.85;99806.59;5035157;28;20492;-72
2022/09/29 11:03:39;;;;;;;5.93;2.30;;;;;;;13.87;75.37;99810.56;5034747;28;20460;-72
2022/09/29 11:06:10;;;;;;;6.70;2.83;;;;;;;13.87;75.04;99815.22;5035108;28;20435;-71
2022/09/29 11:08:55;;;;;;;4.93;1.97;;;;;;;13.95;74.85;99824.41;5035231;28;20519;-72
2022/09/29 11:11:26;;;;;;;6.00;2.20;;;;;;;13.89;75.32;99816.47;5035031;28;20420;-71
2022/09/29 11:13:53;;;;;;;5.00;1.90;;;;;;;13.91;76.13;99813.41;5034823;28;20471;-72
2022/09/29 11:16:26;;;;;;;4.33;1.60;;;;;;;13.95;75.74;99818.97;5034458;28;21022;-72
2022/09/29 11:18:56;;;;;;;4.20;1.73;;;;;;;13.94;76.80;99820.09;5034822;28;20430;-72
2022/09/29 11:21:53;;;;;;;4.03;1.40;;;;;;;13.91;78.29;99818.06;5034787;28;20891;-72
2022/09/29 11:24:34;;;;;;;4.57;1.50;;;;;;;14.64;76.67;99817.91;5034643;28;20506;-72
2022/09/29 11:27:10;;;;;;;5.40;2.03;;;;;;;15.09;67.13;99820.28;5034502;28;20428;-72
2022/09/29 11:29:45;;;;;;;4.80;1.63;;;;;;;15.08;65.42;99829.59;5016769;28;20431;-72
2022/09/29 11:32:34;;;;;;;5.03;1.87;;;;;;;14.92;64.85;99830.72;5034519;28;20431;-73
2022/09/29 11:35:13;;;;;;;5.33;1.67;;;;;;;14.99;66.39;99834.44;5034516;28;20471;-73
2022/09/29 11:37:56;;;;;;;4.80;1.00;;;;;;;15.03;66.28;99837.25;5034515;28;20797;-73
2022/09/29 11:40:31;;;;;;;5.50;1.53;;;;;;;14.93;65.87;99829.59;5034082;28;20427;-76
2022/09/29 11:43:19;;;;;;;3.63;1.10;;;;;;;14.80;65.47;99828.84;5034203;28;20458;-73
2022/09/29 11:45:52;;;;;;;7.90;1.67;;;;;;;14.69;65.25;99836.72;5034279;28;20478;-74
2022/09/29 11:50:55;;;;;;;5.20;1.40;;;;;;;15.03;64.48;99834.53;5049213;28;20501;-73
2022/09/29 11:53:44;;;;;;;4.03;1.30;;;;;;;16.17;64.08;99834.59;5054181;28;20433;-73
2022/09/29 11:56:23;;;;;;;4.57;1.87;;;;;;;17.67;56.54;99832.00;5053753;28;20467;-74
2022/09/29 11:59:04;;;;;;;5.63;2.20;;;;;;;18.23;55.81;99831.25;5053771;28;20515;-71
2022/09/29 12:01:42;;;;;;;4.00;1.30;;;;;;;18.68;55.68;99837.69;5054028;28;20427;-71
2022/09/29 12:04:33;;;;;;;4.47;1.60;;;;;;;19.52;49.47;99844.50;5053866;28;20480;-71